TimeCDT,TemperatureF,Dew PointF,Humidity,Sea Level PressureIn,VisibilityMPH,Wind Direction,Wind SpeedMPH,Gust SpeedMPH,PrecipitationIn,Events,Conditions,WindDirDegrees,DateUTC
12:51 AM,42.8,37.4,81,29.95,10.0,NW,10.4,-,0.00,Rain,Light Rain,310,2014-05-01 05:51:00
12:56 AM,42.1,39.0,89,29.98,10.0,NW,12.7,-,0.00,Rain,Light Rain,310,2014-05-01 05:56:00
1:12 AM,42.1,37.9,85,29.95,10.0,NW,15.0,-,0.00,,Overcast,320,2014-05-01 06:12:00
1:56 AM,43.0,37.9,82,29.96,10.0,NW,16.1,-,0.00,,Overcast,310,2014-05-01 06:56:00
2:56 AM,43.0,37.0,80,29.95,10.0,NW,17.3,26.5,N/A,,Overcast,320,2014-05-01 07:56:00
3:56 AM,42.1,37.0,82,29.94,10.0,NW,23.0,31.1,N/A,,Overcast,320,2014-05-01 08:56:00
4:56 AM,42.1,36.0,79,29.95,10.0,NW,17.3,31.1,N/A,,Overcast,320,2014-05-01 09:56:00
5:56 AM,41.0,36.0,82,29.95,10.0,NNW,19.6,-,N/A,,Overcast,330,2014-05-01 10:56:00
6:56 AM,42.1,35.1,76,29.95,10.0,NW,18.4,28.8,N/A,,Overcast,320,2014-05-01 11:56:00
7:56 AM,41.0,35.1,79,29.97,10.0,NW,18.4,24.2,N/A,,Overcast,310,2014-05-01 12:56:00
8:56 AM,43.0,35.1,74,29.98,10.0,NW,21.9,32.2,N/A,,Overcast,320,2014-05-01 13:56:00
9:56 AM,44.1,35.1,71,29.98,10.0,NNW,23.0,33.4,N/A,,Overcast,330,2014-05-01 14:56:00
10:56 AM,46.0,35.1,66,29.99,10.0,NNW,21.9,-,N/A,,Overcast,330,2014-05-01 15:56:00
11:56 AM,46.0,35.1,66,29.99,10.0,NNW,20.7,28.8,N/A,,Overcast,340,2014-05-01 16:56:00
12:31 PM,46.9,35.1,63,29.97,10.0,NNW,25.3,34.5,N/A,,Overcast,340,2014-05-01 17:31:00
12:56 PM,46.9,35.1,63,30.00,10.0,NNW,24.2,33.4,N/A,,Overcast,330,2014-05-01 17:56:00
1:56 PM,48.0,36.0,63,30.00,10.0,NNW,20.7,28.8,N/A,,Overcast,330,2014-05-01 18:56:00
2:24 PM,48.9,36.0,61,29.98,10.0,NNW,21.9,27.6,N/A,,Overcast,340,2014-05-01 19:24:00
2:47 PM,50.0,36.0,59,29.98,10.0,NNW,19.6,29.9,N/A,,Overcast,330,2014-05-01 19:47:00
2:56 PM,51.1,36.0,56,30.00,10.0,NNW,20.7,29.9,N/A,,Overcast,340,2014-05-01 19:56:00
3:56 PM,48.0,35.1,61,30.01,10.0,NNW,15.0,26.5,N/A,,Overcast,340,2014-05-01 20:56:00
4:56 PM,48.9,35.1,59,30.00,10.0,NNW,15.0,-,N/A,,Overcast,330,2014-05-01 21:56:00
5:56 PM,50.0,34.0,54,29.99,10.0,NNW,15.0,-,N/A,,Overcast,330,2014-05-01 22:56:00
6:56 PM,50.0,33.1,52,29.99,10.0,NNW,13.8,24.2,N/A,,Overcast,330,2014-05-01 23:56:00
7:56 PM,50.0,34.0,54,29.99,10.0,NW,9.2,-,N/A,,Mostly Cloudy,310,2014-05-02 00:56:00
8:56 PM,46.0,33.1,61,29.99,10.0,NW,4.6,-,N/A,,Clear,310,2014-05-02 01:56:00
9:56 PM,42.1,33.1,70,30.00,10.0,WSW,3.5,-,N/A,,Clear,250,2014-05-02 02:56:00
10:56 PM,39.9,33.1,77,30.00,10.0,SW,5.8,-,N/A,,Scattered Clouds,220,2014-05-02 03:56:00
11:56 PM,37.9,32.0,79,30.00,10.0,SW,4.6,-,N/A,,Clear,230,2014-05-02 04:56:00